sensor_id;sensor_type;location;lat;lon;timestamp;pressure;altitude;pressure_sealevel;temperature;humidity
32251;BME280;41295;48.518;9.206;2023-03-19T00:01:56;96914.22;;;11.81;51.75
32251;BME280;41295;48.518;9.206;2023-03-19T00:04:12;96916.84;;;11.81;52.67
32251;BME280;41295;48.518;9.206;2023-03-19T00:06:16;96914.56;;;11.93;53.28
32251;BME280;41295;48.518;9.206;2023-03-19T00:08:19;96915.16;;;11.80;53.87
32251;BME280;41295;48.518;9.206;2023-03-19T00:10:22;96911.00;;;11.76;54.00
32251;BME280;41295;48.518;9.206;2023-03-19T00:12:27;96917.78;;;11.80;54.11
32251;BME280;41295;48.518;9.206;2023-03-19T00:14:29;96913.84;;;11.71;54.70
32251;BME280;41295;48.518;9.206;2023-03-19T00:16:32;96920.19;;;11.65;53.71
32251;BME280;41295;48.518;9.206;2023-03-19T00:18:35;96917.75;;;11.62;53.17
32251;BME280;41295;48.518;9.206;2023-03-19T00:20:37;96910.59;;;11.66;53.15
32251;BME280;41295;48.518;9.206;2023-03-19T00:22:40;96920.28;;;11.64;52.90
32251;BME280;41295;48.518;9.206;2023-03-19T00:24:43;96922.03;;;11.63;53.09
32251;BME280;41295;48.518;9.206;2023-03-19T00:26:45;96918.53;;;11.64;53.43
32251;BME280;41295;48.518;9.206;2023-03-19T00:28:49;96920.28;;;11.64;52.62
32251;BME280;41295;48.518;9.206;2023-03-19T00:30:52;96920.00;;;11.70;52.50
32251;BME280;41295;48.518;9.206;2023-03-19T00:32:55;96912.28;;;11.67;53.03
32251;BME280;41295;48.518;9.206;2023-03-19T00:34:57;96918.53;;;11.64;53.45
32251;BME280;41295;48.518;9.206;2023-03-19T00:37:00;96926.81;;;11.73;53.32
32251;BME280;41295;48.518;9.206;2023-03-19T00:39:03;96920.81;;;11.71;52.99
32251;BME280;41295;48.518;9.206;2023-03-19T00:41:06;96922.16;;;11.79;52.84
32251;BME280;41295;48.518;9.206;2023-03-19T00:43:08;96927.75;;;11.72;53.64
32251;BME280;41295;48.518;9.206;2023-03-19T00:45:13;96921.69;;;11.71;53.32
32251;BME280;41295;48.518;9.206;2023-03-19T00:47:15;96926.75;;;11.74;52.22
32251;BME280;41295;48.518;9.206;2023-03-19T00:49:18;96919.22;;;11.68;52.20
32251;BME280;41295;48.518;9.206;2023-03-19T00:51:21;96919.31;;;11.66;51.88
32251;BME280;41295;48.518;9.206;2023-03-19T00:53:24;96924.44;;;11.68;51.55
32251;BME280;41295;48.518;9.206;2023-03-19T00:55:27;96929.34;;;11.74;51.16
32251;BME280;41295;48.518;9.206;2023-03-19T00:57:30;96932.81;;;11.75;51.35
32251;BME280;41295;48.518;9.206;2023-03-19T00:59:32;96936.28;;;11.75;51.15
32251;BME280;41295;48.518;9.206;2023-03-19T01:01:36;96950.25;;;11.74;51.22
32251;BME280;41295;48.518;9.206;2023-03-19T01:03:39;96942.56;;;11.71;51.46
32251;BME280;41295;48.518;9.206;2023-03-19T01:05:42;96944.13;;;11.75;51.33
32251;BME280;41295;48.518;9.206;2023-03-19T01:07:45;96946.81;;;11.74;51.71
32251;BME280;41295;48.518;9.206;2023-03-19T01:09:47;96952.94;;;11.73;51.95
32251;BME280;41295;48.518;9.206;2023-03-19T01:11:50;96958.09;;;11.74;51.96
32251;BME280;41295;48.518;9.206;2023-03-19T01:13:52;96968.53;;;11.74;52.16
32251;BME280;41295;48.518;9.206;2023-03-19T01:15:55;96967.56;;;11.77;51.88
32251;BME280;41295;48.518;9.206;2023-03-19T01:17:59;96965.38;;;12.05;50.73
32251;BME280;41295;48.518;9.206;2023-03-19T01:20:02;96985.63;;;11.82;51.04
32251;BME280;41295;48.518;9.206;2023-03-19T01:22:09;96984.44;;;12.07;50.54
32251;BME280;41295;48.518;9.206;2023-03-19T01:24:11;97000.91;;;12.09;50.66
32251;BME280;41295;48.518;9.206;2023-03-19T01:26:14;96992.88;;;11.94;51.22
32251;BME280;41295;48.518;9.206;2023-03-19T01:28:17;96985.81;;;11.96;52.08
32251;BME280;41295;48.518;9.206;2023-03-19T01:30:20;96986.59;;;11.98;52.19
32251;BME280;41295;48.518;9.206;2023-03-19T01:32:22;96985.81;;;11.96;52.81
32251;BME280;41295;48.518;9.206;2023-03-19T01:34:26;96984.28;;;11.73;53.73
32251;BME280;41295;48.518;9.206;2023-03-19T01:36:29;96988.81;;;11.69;54.03
32251;BME280;41295;48.518;9.206;2023-03-19T01:38:32;96997.22;;;11.57;54.25
32251;BME280;41295;48.518;9.206;2023-03-19T01:40:35;96989.59;;;11.52;54.63
32251;BME280;41295;48.518;9.206;2023-03-19T01:42:50;96990.44;;;11.52;54.66
32251;BME280;41295;48.518;9.206;2023-03-19T01:44:53;97001.22;;;11.64;54.66
32251;BME280;41295;48.518;9.206;2023-03-19T01:46:56;96996.66;;;11.50;55.07
32251;BME280;41295;48.518;9.206;2023-03-19T01:49:02;96994.69;;;11.55;54.84
32251;BME280;41295;48.518;9.206;2023-03-19T01:51:08;96997.63;;;11.47;55.01
32251;BME280;41295;48.518;9.206;2023-03-19T01:53:12;96987.00;;;11.52;54.68
32251;BME280;41295;48.518;9.206;2023-03-19T01:55:17;96986.28;;;11.48;55.34
32251;BME280;41295;48.518;9.206;2023-03-19T01:57:21;96987.56;;;11.39;55.59
32251;BME280;41295;48.518;9.206;2023-03-19T01:59:26;96988.03;;;11.48;55.89
32251;BME280;41295;48.518;9.206;2023-03-19T02:01:31;96991.66;;;11.45;56.16
32251;BME280;41295;48.518;9.206;2023-03-19T02:03:36;96989.53;;;11.53;55.93
32251;BME280;41295;48.518;9.206;2023-03-19T02:05:40;96984.22;;;11.55;56.22
32251;BME280;41295;48.518;9.206;2023-03-19T02:07:46;96988.53;;;11.37;56.44
32251;BME280;41295;48.518;9.206;2023-03-19T02:09:49;96987.41;;;11.42;56.93
32251;BME280;41295;48.518;9.206;2023-03-19T02:11:52;96986.91;;;11.34;57.04
32251;BME280;41295;48.518;9.206;2023-03-19T02:13:54;96991.28;;;11.34;57.51
32251;BME280;41295;48.518;9.206;2023-03-19T02:15:57;96991.56;;;11.47;56.95
32251;BME280;41295;48.518;9.206;2023-03-19T02:18:00;96998.25;;;11.33;56.91
32251;BME280;41295;48.518;9.206;2023-03-19T02:20:07;97004.19;;;11.37;57.41
32251;BME280;41295;48.518;9.206;2023-03-19T02:22:15;97005.91;;;11.38;57.59
32251;BME280;41295;48.518;9.206;2023-03-19T02:24:24;97016.75;;;11.48;57.99
32251;BME280;41295;48.518;9.206;2023-03-19T02:26:32;97013.25;;;11.49;59.18
32251;BME280;41295;48.518;9.206;2023-03-19T02:28:37;97014.38;;;11.43;60.39
32251;BME280;41295;48.518;9.206;2023-03-19T02:30:41;97015.19;;;11.43;61.16
32251;BME280;41295;48.518;9.206;2023-03-19T02:32:44;97015.06;;;11.27;61.63
32251;BME280;41295;48.518;9.206;2023-03-19T02:34:47;97016.09;;;11.23;62.58
32251;BME280;41295;48.518;9.206;2023-03-19T02:36:52;97011.75;;;11.24;63.47
32251;BME280;41295;48.518;9.206;2023-03-19T02:38:59;97004.09;;;11.19;63.81
32251;BME280;41295;48.518;9.206;2023-03-19T02:41:05;97006.00;;;11.15;64.48
32251;BME280;41295;48.518;9.206;2023-03-19T02:43:10;97005.16;;;11.15;65.44
32251;BME280;41295;48.518;9.206;2023-03-19T02:45:13;97004.25;;;11.16;65.82
32251;BME280;41295;48.518;9.206;2023-03-19T02:47:16;97001.88;;;11.10;66.25
32251;BME280;41295;48.518;9.206;2023-03-19T02:49:18;96995.13;;;11.05;66.93
32251;BME280;41295;48.518;9.206;2023-03-19T02:51:21;96996.81;;;11.06;66.85
32251;BME280;41295;48.518;9.206;2023-03-19T02:53:24;97005.50;;;11.07;66.74
32251;BME280;41295;48.518;9.206;2023-03-19T02:55:27;96999.34;;;11.08;66.73
32251;BME280;41295;48.518;9.206;2023-03-19T02:57:30;97002.81;;;11.09;66.50
32251;BME280;41295;48.518;9.206;2023-03-19T02:59:34;97000.28;;;11.07;66.91
32251;BME280;41295;48.518;9.206;2023-03-19T03:01:36;96999.50;;;11.05;67.17
32251;BME280;41295;48.518;9.206;2023-03-19T03:03:39;97003.84;;;11.04;67.10
32251;BME280;41295;48.518;9.206;2023-03-19T03:05:42;97009.00;;;11.06;67.25
32251;BME280;41295;48.518;9.206;2023-03-19T03:07:45;97009.06;;;11.04;67.80
32251;BME280;41295;48.518;9.206;2023-03-19T03:09:47;97011.75;;;11.03;67.95
32251;BME280;41295;48.518;9.206;2023-03-19T03:11:50;97009.63;;;10.92;68.33
32251;BME280;41295;48.518;9.206;2023-03-19T03:13:52;97004.69;;;10.86;68.80
32251;BME280;41295;48.518;9.206;2023-03-19T03:15:56;97001.13;;;10.87;68.32
32251;BME280;41295;48.518;9.206;2023-03-19T03:17:59;97010.78;;;10.85;68.53
32251;BME280;41295;48.518;9.206;2023-03-19T03:20:02;97012.50;;;10.86;68.69
32251;BME280;41295;48.518;9.206;2023-03-19T03:22:05;97007.22;;;10.87;68.93
32251;BME280;41295;48.518;9.206;2023-03-19T03:24:08;97001.94;;;10.89;69.13
32251;BME280;41295;48.518;9.206;2023-03-19T03:26:11;97013.88;;;10.94;69.27
32251;BME280;41295;48.518;9.206;2023-03-19T03:28:14;97011.19;;;10.96;69.21
32251;BME280;41295;48.518;9.206;2023-03-19T03:30:16;97005.25;;;10.92;69.43
32251;BME280;41295;48.518;9.206;2023-03-19T03:32:20;97012.16;;;10.93;69.66
32251;BME280;41295;48.518;9.206;2023-03-19T03:34:23;97014.06;;;10.90;69.96
32251;BME280;41295;48.518;9.206;2023-03-19T03:36:26;97014.06;;;10.90;70.10
32251;BME280;41295;48.518;9.206;2023-03-19T03:38:29;97021.03;;;10.89;70.46
32251;BME280;41295;48.518;9.206;2023-03-19T03:40:33;97019.22;;;10.91;70.41
32251;BME280;41295;48.518;9.206;2023-03-19T03:42:37;97021.81;;;10.91;70.40
32251;BME280;41295;48.518;9.206;2023-03-19T03:44:39;97020.97;;;10.91;70.55
32251;BME280;41295;48.518;9.206;2023-03-19T03:46:42;97020.97;;;10.91;70.54
32251;BME280;41295;48.518;9.206;2023-03-19T03:48:46;97025.34;;;10.90;70.88
32251;BME280;41295;48.518;9.206;2023-03-19T03:50:49;97025.41;;;10.89;70.92
32251;BME280;41295;48.518;9.206;2023-03-19T03:52:52;97031.47;;;10.89;70.96
32251;BME280;41295;48.518;9.206;2023-03-19T03:54:55;97027.16;;;10.88;71.18
32251;BME280;41295;48.518;9.206;2023-03-19T03:56:58;97028.88;;;10.89;70.96
32251;BME280;41295;48.518;9.206;2023-03-19T03:59:04;97026.19;;;10.91;70.86
32251;BME280;41295;48.518;9.206;2023-03-19T04:01:06;97029.66;;;10.91;70.94
32251;BME280;41295;48.518;9.206;2023-03-19T04:03:09;97030.41;;;10.93;71.45
32251;BME280;41295;48.518;9.206;2023-03-19T04:05:13;97030.38;;;10.95;71.17
32251;BME280;41295;48.518;9.206;2023-03-19T04:07:16;97029.50;;;10.94;71.20
32251;BME280;41295;48.518;9.206;2023-03-19T04:09:18;97036.47;;;10.94;71.20
32251;BME280;41295;48.518;9.206;2023-03-19T04:11:21;97033.72;;;10.97;70.87
32251;BME280;41295;48.518;9.206;2023-03-19T04:13:24;97032.78;;;11.00;70.87
32251;BME280;41295;48.518;9.206;2023-03-19T04:15:27;97033.16;;;10.90;71.00
32251;BME280;41295;48.518;9.206;2023-03-19T04:17:31;97034.16;;;10.88;71.38
32251;BME280;41295;48.518;9.206;2023-03-19T04:19:33;97034.16;;;10.88;71.23
32251;BME280;41295;48.518;9.206;2023-03-19T04:21:37;97040.34;;;10.85;70.95
32251;BME280;41295;48.518;9.206;2023-03-19T04:23:40;97034.72;;;10.94;70.61
32251;BME280;41295;48.518;9.206;2023-03-19T04:25:42;97043.88;;;10.84;71.08
32251;BME280;41295;48.518;9.206;2023-03-19T04:27:45;97040.16;;;10.90;70.85
32251;BME280;41295;48.518;9.206;2023-03-19T04:29:48;97040.34;;;10.85;71.10
32251;BME280;41295;48.518;9.206;2023-03-19T04:31:51;97048.50;;;10.77;71.42
32251;BME280;41295;48.518;9.206;2023-03-19T04:33:54;97050.19;;;10.78;71.26
32251;BME280;41295;48.518;9.206;2023-03-19T04:35:57;97035.47;;;10.77;71.48
32251;BME280;41295;48.518;9.206;2023-03-19T04:38:01;97039.47;;;10.85;71.68
32251;BME280;41295;48.518;9.206;2023-03-19T04:40:05;97033.44;;;10.84;71.60
32251;BME280;41295;48.518;9.206;2023-03-19T04:42:08;97034.09;;;10.89;71.77
32251;BME280;41295;48.518;9.206;2023-03-19T04:44:11;97035.41;;;10.79;72.54
32251;BME280;41295;48.518;9.206;2023-03-19T04:46:14;97032.84;;;10.77;72.48
32251;BME280;41295;48.518;9.206;2023-03-19T04:48:17;97029.97;;;10.83;72.74
32251;BME280;41295;48.518;9.206;2023-03-19T04:50:19;97037.72;;;10.85;73.46
32251;BME280;41295;48.518;9.206;2023-03-19T04:52:22;97039.69;;;10.80;73.27
32251;BME280;41295;48.518;9.206;2023-03-19T04:54:26;97045.63;;;10.83;73.60
32251;BME280;41295;48.518;9.206;2023-03-19T04:56:29;97044.59;;;10.88;73.82
32251;BME280;41295;48.518;9.206;2023-03-19T04:58:31;97042.88;;;10.87;73.73
32251;BME280;41295;48.518;9.206;2023-03-19T05:00:35;97047.44;;;10.81;73.89
32251;BME280;41295;48.518;9.206;2023-03-19T05:02:37;97054.75;;;10.94;73.47
32251;BME280;41295;48.518;9.206;2023-03-19T05:04:40;97057.34;;;10.94;73.32
32251;BME280;41295;48.518;9.206;2023-03-19T05:06:42;97052.34;;;10.89;73.65
32251;BME280;41295;48.518;9.206;2023-03-19T05:08:45;97055.97;;;10.85;73.88
32251;BME280;41295;48.518;9.206;2023-03-19T05:10:50;97063.09;;;10.81;74.06
32251;BME280;41295;48.518;9.206;2023-03-19T05:12:52;97059.63;;;10.81;73.86
32251;BME280;41295;48.518;9.206;2023-03-19T05:14:56;97064.00;;;10.80;73.63
32251;BME280;41295;48.518;9.206;2023-03-19T05:16:58;97067.41;;;10.82;73.93
32251;BME280;41295;48.518;9.206;2023-03-19T05:19:01;97068.25;;;10.83;73.58
32251;BME280;41295;48.518;9.206;2023-03-19T05:21:04;97067.53;;;10.79;74.02
32251;BME280;41295;48.518;9.206;2023-03-19T05:23:07;97066.78;;;10.76;74.06
32251;BME280;41295;48.518;9.206;2023-03-19T05:25:09;97070.75;;;10.86;74.04
32251;BME280;41295;48.518;9.206;2023-03-19T05:27:13;97064.84;;;10.81;73.91
32251;BME280;41295;48.518;9.206;2023-03-19T05:29:16;97069.47;;;10.74;74.18
32251;BME280;41295;48.518;9.206;2023-03-19T05:31:19;97066.06;;;10.72;73.96
32251;BME280;41295;48.518;9.206;2023-03-19T05:33:22;97070.41;;;10.73;74.38
32251;BME280;41295;48.518;9.206;2023-03-19T05:35:25;97064.84;;;10.81;73.77
32251;BME280;41295;48.518;9.206;2023-03-19T05:37:28;97052.41;;;10.88;73.33
32251;BME280;41295;48.518;9.206;2023-03-19T05:39:31;97064.84;;;10.81;73.42
32251;BME280;41295;48.518;9.206;2023-03-19T05:41:34;97062.78;;;10.89;72.83
32251;BME280;41295;48.518;9.206;2023-03-19T05:43:38;97063.28;;;10.98;72.33
32251;BME280;41295;48.518;9.206;2023-03-19T05:45:40;97068.16;;;10.85;72.60
32251;BME280;41295;48.518;9.206;2023-03-19T05:47:45;97064.09;;;10.79;72.52
32251;BME280;41295;48.518;9.206;2023-03-19T05:49:48;97066.94;;;10.93;71.82
32251;BME280;41295;48.518;9.206;2023-03-19T05:51:51;97070.66;;;10.88;72.51
32251;BME280;41295;48.518;9.206;2023-03-19T05:53:53;97072.22;;;10.92;72.09
32251;BME280;41295;48.518;9.206;2023-03-19T05:55:56;97072.34;;;10.89;72.45
32251;BME280;41295;48.518;9.206;2023-03-19T05:57:59;97071.84;;;10.80;72.46
32251;BME280;41295;48.518;9.206;2023-03-19T06:00:04;97082.41;;;10.77;72.56
32251;BME280;41295;48.518;9.206;2023-03-19T06:02:08;97083.22;;;10.78;72.16
32251;BME280;41295;48.518;9.206;2023-03-19T06:04:10;97080.44;;;10.82;72.38
32251;BME280;41295;48.518;9.206;2023-03-19T06:06:13;97090.88;;;10.82;72.33
32251;BME280;41295;48.518;9.206;2023-03-19T06:08:16;97090.03;;;10.82;72.17
32251;BME280;41295;48.518;9.206;2023-03-19T06:10:18;97087.28;;;10.85;72.22
32251;BME280;41295;48.518;9.206;2023-03-19T06:12:21;97098.50;;;10.87;72.37
32251;BME280;41295;48.518;9.206;2023-03-19T06:14:24;97093.22;;;10.89;71.88
32251;BME280;41295;48.518;9.206;2023-03-19T06:16:28;97104.50;;;10.89;72.08
32251;BME280;41295;48.518;9.206;2023-03-19T06:18:31;97099.22;;;10.91;72.21
32251;BME280;41295;48.518;9.206;2023-03-19T06:20:33;97105.16;;;10.94;71.84
32251;BME280;41295;48.518;9.206;2023-03-19T06:22:37;97112.22;;;10.92;71.12
32251;BME280;41295;48.518;9.206;2023-03-19T06:24:39;97115.47;;;10.98;71.28
32251;BME280;41295;48.518;9.206;2023-03-19T06:26:42;97111.91;;;11.00;70.83
32251;BME280;41295;48.518;9.206;2023-03-19T06:28:44;97112.63;;;11.04;70.52
32251;BME280;41295;48.518;9.206;2023-03-19T06:30:47;97119.44;;;11.06;70.44
32251;BME280;41295;48.518;9.206;2023-03-19T06:32:51;97126.38;;;11.07;70.70
32251;BME280;41295;48.518;9.206;2023-03-19T06:34:54;97129.00;;;11.07;70.45
32251;BME280;41295;48.518;9.206;2023-03-19T06:36:57;97119.84;;;11.18;68.76
32251;BME280;41295;48.518;9.206;2023-03-19T06:38:59;97120.13;;;11.33;68.64
32251;BME280;41295;48.518;9.206;2023-03-19T06:41:03;97127.69;;;11.18;69.38
32251;BME280;41295;48.518;9.206;2023-03-19T06:43:06;97124.28;;;11.16;69.38
32251;BME280;41295;48.518;9.206;2023-03-19T06:45:12;97129.63;;;11.13;69.68
32251;BME280;41295;48.518;9.206;2023-03-19T06:47:16;97132.97;;;11.16;69.53
32251;BME280;41295;48.518;9.206;2023-03-19T06:49:21;97135.25;;;11.24;69.13
32251;BME280;41295;48.518;9.206;2023-03-19T06:51:23;97131.00;;;11.22;69.76
32251;BME280;41295;48.518;9.206;2023-03-19T06:53:28;97127.84;;;11.13;70.39
32251;BME280;41295;48.518;9.206;2023-03-19T06:55:30;97122.63;;;11.13;70.69
32251;BME280;41295;48.518;9.206;2023-03-19T06:57:33;97126.09;;;11.14;71.54
32251;BME280;41295;48.518;9.206;2023-03-19T06:59:35;97125.22;;;11.15;71.53
32251;BME280;41295;48.518;9.206;2023-03-19T07:01:39;97120.75;;;11.17;71.91
32251;BME280;41295;48.518;9.206;2023-03-19T07:03:41;97118.06;;;11.18;71.93
32251;BME280;41295;48.518;9.206;2023-03-19T07:05:47;97117.97;;;11.22;72.24
32251;BME280;41295;48.518;9.206;2023-03-19T07:07:49;97114.44;;;11.23;71.88
32251;BME280;41295;48.518;9.206;2023-03-19T07:09:52;97113.38;;;11.27;71.68
32251;BME280;41295;48.518;9.206;2023-03-19T07:11:54;97105.56;;;11.27;72.02
32251;BME280;41295;48.518;9.206;2023-03-19T07:13:57;97113.25;;;11.30;71.62
32251;BME280;41295;48.518;9.206;2023-03-19T07:16:00;97110.56;;;11.31;71.80
32251;BME280;41295;48.518;9.206;2023-03-19T07:18:02;97115.78;;;11.31;71.92
32251;BME280;41295;48.518;9.206;2023-03-19T07:20:06;97116.38;;;11.38;71.68
32251;BME280;41295;48.518;9.206;2023-03-19T07:22:10;97122.19;;;11.45;71.48
32251;BME280;41295;48.518;9.206;2023-03-19T07:24:13;97117.22;;;11.39;71.19
32251;BME280;41295;48.518;9.206;2023-03-19T07:26:15;97116.38;;;11.38;71.56
32251;BME280;41295;48.518;9.206;2023-03-19T07:28:18;97115.41;;;11.41;71.49
32251;BME280;41295;48.518;9.206;2023-03-19T07:30:21;97110.69;;;11.49;70.29
32251;BME280;41295;48.518;9.206;2023-03-19T07:32:23;97110.13;;;11.62;69.14
32251;BME280;41295;48.518;9.206;2023-03-19T07:34:26;97115.34;;;11.62;69.06
32251;BME280;41295;48.518;9.206;2023-03-19T07:36:28;97118.38;;;11.52;69.04
32251;BME280;41295;48.518;9.206;2023-03-19T07:38:34;97114.88;;;11.53;69.00
32251;BME280;41295;48.518;9.206;2023-03-19T07:40:36;97123.25;;;11.60;69.35
32251;BME280;41295;48.518;9.206;2023-03-19T07:42:46;97116.75;;;11.50;69.45
32251;BME280;41295;48.518;9.206;2023-03-19T07:44:48;97119.44;;;11.48;70.12
32251;BME280;41295;48.518;9.206;2023-03-19T07:46:51;97118.91;;;11.61;69.79
32251;BME280;41295;48.518;9.206;2023-03-19T07:48:53;97121.59;;;11.59;69.79
32251;BME280;41295;48.518;9.206;2023-03-19T07:50:56;97118.50;;;11.70;68.63
32251;BME280;41295;48.518;9.206;2023-03-19T07:52:59;97126.38;;;11.69;68.74
32251;BME280;41295;48.518;9.206;2023-03-19T07:55:03;97121.59;;;11.78;68.27
32251;BME280;41295;48.518;9.206;2023-03-19T07:57:06;97123.81;;;11.88;67.74
32251;BME280;41295;48.518;9.206;2023-03-19T07:59:09;97124.72;;;11.87;66.81
32251;BME280;41295;48.518;9.206;2023-03-19T08:01:14;97120.66;;;11.79;67.20
32251;BME280;41295;48.518;9.206;2023-03-19T08:03:17;97120.34;;;11.87;66.72
32251;BME280;41295;48.518;9.206;2023-03-19T08:05:20;97128.88;;;11.91;66.74
32251;BME280;41295;48.518;9.206;2023-03-19T08:07:22;97117.47;;;12.13;64.79
32251;BME280;41295;48.518;9.206;2023-03-19T08:09:26;97117.88;;;12.03;65.55
32251;BME280;41295;48.518;9.206;2023-03-19T08:11:30;97119.00;;;12.17;64.50
32251;BME280;41295;48.518;9.206;2023-03-19T08:13:32;97123.69;;;12.10;65.15
32251;BME280;41295;48.518;9.206;2023-03-19T08:15:35;97126.41;;;12.07;65.67
32251;BME280;41295;48.518;9.206;2023-03-19T08:17:38;97127.22;;;12.09;65.65
32251;BME280;41295;48.518;9.206;2023-03-19T08:19:40;97129.34;;;12.20;64.73
32251;BME280;41295;48.518;9.206;2023-03-19T08:21:43;97124.03;;;12.22;65.05
32251;BME280;41295;48.518;9.206;2023-03-19T08:23:45;97123.09;;;12.42;62.97
32251;BME280;41295;48.518;9.206;2023-03-19T08:25:48;97120.56;;;12.41;62.82
32251;BME280;41295;48.518;9.206;2023-03-19T08:27:53;97119.91;;;12.35;63.12
32251;BME280;41295;48.518;9.206;2023-03-19T08:29:56;97123.94;;;12.43;62.59
32251;BME280;41295;48.518;9.206;2023-03-19T08:31:59;97124.03;;;12.41;62.76
32251;BME280;41295;48.518;9.206;2023-03-19T08:34:02;97124.88;;;12.42;62.80
32251;BME280;41295;48.518;9.206;2023-03-19T08:36:06;97123.88;;;12.44;62.93
32251;BME280;41295;48.518;9.206;2023-03-19T08:38:09;97123.81;;;12.63;62.25
32251;BME280;41295;48.518;9.206;2023-03-19T08:40:12;97126.91;;;12.54;62.33
32251;BME280;41295;48.518;9.206;2023-03-19T08:42:15;97128.50;;;12.57;62.17
32251;BME280;41295;48.518;9.206;2023-03-19T08:44:19;97124.59;;;12.66;61.95
32251;BME280;41295;48.518;9.206;2023-03-19T08:46:21;97127.22;;;12.83;61.03
32251;BME280;41295;48.518;9.206;2023-03-19T08:48:24;97124.16;;;12.75;61.27
32251;BME280;41295;48.518;9.206;2023-03-19T08:50:27;97129.16;;;12.97;58.55
32251;BME280;41295;48.518;9.206;2023-03-19T08:52:30;97123.72;;;12.84;59.40
32251;BME280;41295;48.518;9.206;2023-03-19T08:54:33;97123.31;;;12.92;58.58
32251;BME280;41295;48.518;9.206;2023-03-19T08:56:37;97129.16;;;12.97;59.06
32251;BME280;41295;48.518;9.206;2023-03-19T08:58:39;97122.63;;;13.06;58.51
32251;BME280;41295;48.518;9.206;2023-03-19T09:00:44;97131.47;;;13.21;57.33
32251;BME280;41295;48.518;9.206;2023-03-19T09:02:47;97129.03;;;13.18;56.88
32251;BME280;41295;48.518;9.206;2023-03-19T09:04:50;97129.31;;;13.30;57.39
32251;BME280;41295;48.518;9.206;2023-03-19T09:06:53;97116.63;;;13.40;56.49
32251;BME280;41295;48.518;9.206;2023-03-19T09:08:56;97128.25;;;13.34;57.64
32251;BME280;41295;48.518;9.206;2023-03-19T09:10:59;97122.75;;;13.39;56.36
32251;BME280;41295;48.518;9.206;2023-03-19T09:13:02;97119.31;;;13.38;56.69
32251;BME280;41295;48.518;9.206;2023-03-19T09:15:05;97132.47;;;13.19;57.63
32251;BME280;41295;48.518;9.206;2023-03-19T09:17:10;97126.09;;;13.25;57.21
32251;BME280;41295;48.518;9.206;2023-03-19T09:19:13;97128.53;;;13.28;57.50
32251;BME280;41295;48.518;9.206;2023-03-19T09:21:17;97118.63;;;13.34;56.99
32251;BME280;41295;48.518;9.206;2023-03-19T09:23:20;97120.31;;;13.35;57.19
32251;BME280;41295;48.518;9.206;2023-03-19T09:25:23;97122.19;;;13.67;55.40
32251;BME280;41295;48.518;9.206;2023-03-19T09:27:25;97116.78;;;13.70;54.55
32251;BME280;41295;48.518;9.206;2023-03-19T09:29:28;97117.28;;;13.61;55.45
32251;BME280;41295;48.518;9.206;2023-03-19T09:31:31;97118.41;;;13.73;55.88
32251;BME280;41295;48.518;9.206;2023-03-19T09:33:35;97118.66;;;13.68;55.10
32251;BME280;41295;48.518;9.206;2023-03-19T09:35:38;97123.91;;;13.68;55.13
32251;BME280;41295;48.518;9.206;2023-03-19T09:37:41;97129.41;;;13.80;54.05
32251;BME280;41295;48.518;9.206;2023-03-19T09:39:43;97121.13;;;13.71;54.09
32251;BME280;41295;48.518;9.206;2023-03-19T09:41:54;97122.66;;;13.76;54.30
32251;BME280;41295;48.518;9.206;2023-03-19T09:44:02;97122.16;;;13.85;55.08
32251;BME280;41295;48.518;9.206;2023-03-19T09:46:13;97110.41;;;13.92;54.79
32251;BME280;41295;48.518;9.206;2023-03-19T09:48:18;97117.88;;;14.00;53.07
32251;BME280;41295;48.518;9.206;2023-03-19T09:50:24;97113.19;;;13.89;53.56
32251;BME280;41295;48.518;9.206;2023-03-19T09:52:40;97120.19;;;13.89;52.91
32251;BME280;41295;48.518;9.206;2023-03-19T09:54:46;97114.66;;;14.11;53.44
32251;BME280;41295;48.518;9.206;2023-03-19T09:56:50;97118.97;;;14.12;52.63
32251;BME280;41295;48.518;9.206;2023-03-19T09:58:52;97113.13;;;14.07;51.98
32251;BME280;41295;48.518;9.206;2023-03-19T10:00:55;97117.88;;;14.33;50.66
32251;BME280;41295;48.518;9.206;2023-03-19T10:03:03;97100.53;;;14.30;50.46
32251;BME280;41295;48.518;9.206;2023-03-19T10:05:17;97105.66;;;14.48;48.98
32251;BME280;41295;48.518;9.206;2023-03-19T10:07:34;97110.16;;;14.46;49.54
32251;BME280;41295;48.518;9.206;2023-03-19T10:09:51;97105.06;;;14.42;49.01
32251;BME280;41295;48.518;9.206;2023-03-19T10:12:08;97101.34;;;14.47;48.07
32251;BME280;41295;48.518;9.206;2023-03-19T10:14:34;97102.47;;;14.42;48.57
32251;BME280;41295;48.518;9.206;2023-03-19T10:16:44;97095.91;;;14.66;47.25
32251;BME280;41295;48.518;9.206;2023-03-19T10:18:50;97103.03;;;14.48;48.42
32251;BME280;41295;48.518;9.206;2023-03-19T10:20:57;97100.84;;;14.56;47.51
32251;BME280;41295;48.518;9.206;2023-03-19T10:23:16;97095.16;;;14.48;47.87
32251;BME280;41295;48.518;9.206;2023-03-19T10:25:24;97087.38;;;14.46;48.17
32251;BME280;41295;48.518;9.206;2023-03-19T10:27:31;97097.56;;;14.52;47.69
32251;BME280;41295;48.518;9.206;2023-03-19T10:29:33;97094.41;;;14.46;47.63
32251;BME280;41295;48.518;9.206;2023-03-19T10:31:43;97092.16;;;14.39;47.86
32251;BME280;41295;48.518;9.206;2023-03-19T10:33:52;97089.03;;;14.63;47.16
32251;BME280;41295;48.518;9.206;2023-03-19T10:36:03;97083.91;;;14.46;47.87
32251;BME280;41295;48.518;9.206;2023-03-19T10:38:16;97082.16;;;14.77;47.23
32251;BME280;41295;48.518;9.206;2023-03-19T10:40:25;97081.94;;;14.65;47.29
32251;BME280;41295;48.518;9.206;2023-03-19T10:42:39;97075.34;;;14.58;48.01
32251;BME280;41295;48.518;9.206;2023-03-19T10:44:48;97071.78;;;14.75;46.08
32251;BME280;41295;48.518;9.206;2023-03-19T10:46:52;97067.63;;;14.71;46.90
32251;BME280;41295;48.518;9.206;2023-03-19T10:48:56;97078.81;;;14.59;47.42
32251;BME280;41295;48.518;9.206;2023-03-19T10:51:00;97080.06;;;14.84;46.39
32251;BME280;41295;48.518;9.206;2023-03-19T10:53:06;97069.03;;;14.93;46.28
32251;BME280;41295;48.518;9.206;2023-03-19T10:55:14;97069.78;;;14.95;46.80
32251;BME280;41295;48.518;9.206;2023-03-19T10:57:22;97057.97;;;14.88;46.92